sensor_id;sensor_type;location;lat;lon;timestamp;temperature;humidity
11284;DHT22;5698;47.332;11.180;2023-05-24T00:00:14;10.10;99.90
11284;DHT22;5698;47.332;11.180;2023-05-24T00:02:42;10.10;99.90
11284;DHT22;5698;47.332;11.180;2023-05-24T00:05:09;10.20;99.90
11284;DHT22;5698;47.332;11.180;2023-05-24T00:07:36;10.20;99.90
11284;DHT22;5698;47.332;11.180;2023-05-24T00:10:03;10.20;99.90
11284;DHT22;5698;47.332;11.180;2023-05-24T00:12:30;10.10;99.90
11284;DHT22;5698;47.332;11.180;2023-05-24T00:14:58;10.10;99.90
11284;DHT22;5698;47.332;11.180;2023-05-24T00:17:25;10.20;99.90
11284;DHT22;5698;47.332;11.180;2023-05-24T00:19:54;10.20;99.90
11284;DHT22;5698;47.332;11.180;2023-05-24T00:22:21;10.20;99.90
11284;DHT22;5698;47.332;11.180;2023-05-24T00:24:49;10.20;99.90
11284;DHT22;5698;47.332;11.180;2023-05-24T00:27:16;10.20;99.90
11284;DHT22;5698;47.332;11.180;2023-05-24T00:29:43;10.20;99.90
11284;DHT22;5698;47.332;11.180;2023-05-24T00:32:12;10.20;99.90
11284;DHT22;5698;47.332;11.180;2023-05-24T00:34:39;10.20;99.90
11284;DHT22;5698;47.332;11.180;2023-05-24T00:37:06;10.10;99.90
11284;DHT22;5698;47.332;11.180;2023-05-24T00:39:33;10.10;99.90
11284;DHT22;5698;47.332;11.180;2023-05-24T00:42:01;10.10;99.90
11284;DHT22;5698;47.332;11.180;2023-05-24T00:44:29;10.10;99.90
11284;DHT22;5698;47.332;11.180;2023-05-24T00:46:56;10.10;99.90
11284;DHT22;5698;47.332;11.180;2023-05-24T00:49:24;10.10;99.90
11284;DHT22;5698;47.332;11.180;2023-05-24T00:51:52;10.10;99.90
11284;DHT22;5698;47.332;11.180;2023-05-24T00:54:20;10.10;99.90
11284;DHT22;5698;47.332;11.180;2023-05-24T00:56:47;10.00;99.90
11284;DHT22;5698;47.332;11.180;2023-05-24T00:59:14;10.00;99.90
11284;DHT22;5698;47.332;11.180;2023-05-24T01:01:41;9.90;99.90
11284;DHT22;5698;47.332;11.180;2023-05-24T01:04:11;9.90;99.90
11284;DHT22;5698;47.332;11.180;2023-05-24T01:06:44;9.90;99.90
11284;DHT22;5698;47.332;11.180;2023-05-24T01:09:22;9.80;99.90
11284;DHT22;5698;47.332;11.180;2023-05-24T01:11:59;9.80;99.90
11284;DHT22;5698;47.332;11.180;2023-05-24T01:14:38;9.80;99.90
11284;DHT22;5698;47.332;11.180;2023-05-24T01:17:13;9.80;99.90
11284;DHT22;5698;47.332;11.180;2023-05-24T01:20:02;9.80;99.90
11284;DHT22;5698;47.332;11.180;2023-05-24T01:25:57;9.80;99.90
11284;DHT22;5698;47.332;11.180;2023-05-24T01:28:28;9.90;99.90
11284;DHT22;5698;47.332;11.180;2023-05-24T01:30:57;9.90;99.90
11284;DHT22;5698;47.332;11.180;2023-05-24T01:33:25;10.00;99.90
11284;DHT22;5698;47.332;11.180;2023-05-24T01:35:53;10.00;99.90
11284;DHT22;5698;47.332;11.180;2023-05-24T01:38:19;9.90;99.90
11284;DHT22;5698;47.332;11.180;2023-05-24T01:40:49;9.90;99.90
11284;DHT22;5698;47.332;11.180;2023-05-24T01:43:24;9.90;99.90
11284;DHT22;5698;47.332;11.180;2023-05-24T01:46:01;9.80;99.90
11284;DHT22;5698;47.332;11.180;2023-05-24T01:48:36;9.90;99.90
11284;DHT22;5698;47.332;11.180;2023-05-24T01:51:06;9.90;99.90
11284;DHT22;5698;47.332;11.180;2023-05-24T01:53:40;10.00;99.90
11284;DHT22;5698;47.332;11.180;2023-05-24T01:56:11;10.00;99.90
11284;DHT22;5698;47.332;11.180;2023-05-24T01:58:40;10.10;99.90
11284;DHT22;5698;47.332;11.180;2023-05-24T02:01:11;10.10;99.90
11284;DHT22;5698;47.332;11.180;2023-05-24T02:03:39;10.10;99.90
11284;DHT22;5698;47.332;11.180;2023-05-24T02:06:06;10.10;99.90
11284;DHT22;5698;47.332;11.180;2023-05-24T02:08:35;10.20;99.90
11284;DHT22;5698;47.332;11.180;2023-05-24T02:11:02;10.20;99.90
11284;DHT22;5698;47.332;11.180;2023-05-24T02:13:29;10.20;99.90
11284;DHT22;5698;47.332;11.180;2023-05-24T02:15:56;10.20;99.90
11284;DHT22;5698;47.332;11.180;2023-05-24T02:18:24;10.30;99.90
11284;DHT22;5698;47.332;11.180;2023-05-24T02:20:51;10.30;99.90
11284;DHT22;5698;47.332;11.180;2023-05-24T02:23:18;10.30;99.90
11284;DHT22;5698;47.332;11.180;2023-05-24T02:25:45;10.30;99.90
11284;DHT22;5698;47.332;11.180;2023-05-24T02:28:12;10.30;99.90
11284;DHT22;5698;47.332;11.180;2023-05-24T02:30:39;10.30;99.90
11284;DHT22;5698;47.332;11.180;2023-05-24T02:33:09;10.30;99.90
11284;DHT22;5698;47.332;11.180;2023-05-24T02:35:38;10.30;99.90
11284;DHT22;5698;47.332;11.180;2023-05-24T02:38:06;10.30;99.90
11284;DHT22;5698;47.332;11.180;2023-05-24T02:40:34;10.20;99.90
11284;DHT22;5698;47.332;11.180;2023-05-24T02:43:01;10.20;99.90
11284;DHT22;5698;47.332;11.180;2023-05-24T02:45:36;10.20;99.90
11284;DHT22;5698;47.332;11.180;2023-05-24T02:48:03;10.20;99.90
11284;DHT22;5698;47.332;11.180;2023-05-24T02:50:30;10.20;99.90
11284;DHT22;5698;47.332;11.180;2023-05-24T02:52:57;10.10;99.90
11284;DHT22;5698;47.332;11.180;2023-05-24T02:55:24;10.00;99.90
11284;DHT22;5698;47.332;11.180;2023-05-24T02:57:51;10.00;99.90
11284;DHT22;5698;47.332;11.180;2023-05-24T03:00:19;10.00;99.90
11284;DHT22;5698;47.332;11.180;2023-05-24T03:02:47;10.00;99.90
11284;DHT22;5698;47.332;11.180;2023-05-24T03:05:15;10.00;99.90
11284;DHT22;5698;47.332;11.180;2023-05-24T03:07:42;10.00;99.90
11284;DHT22;5698;47.332;11.180;2023-05-24T03:10:10;10.00;99.90
11284;DHT22;5698;47.332;11.180;2023-05-24T03:12:37;10.00;99.90
11284;DHT22;5698;47.332;11.180;2023-05-24T03:15:05;10.00;99.90
11284;DHT22;5698;47.332;11.180;2023-05-24T03:17:32;10.00;99.90
11284;DHT22;5698;47.332;11.180;2023-05-24T03:20:00;10.00;99.90
11284;DHT22;5698;47.332;11.180;2023-05-24T03:22:27;10.00;99.90
11284;DHT22;5698;47.332;11.180;2023-05-24T03:24:54;10.00;99.90
11284;DHT22;5698;47.332;11.180;2023-05-24T03:27:21;10.00;99.90
11284;DHT22;5698;47.332;11.180;2023-05-24T03:29:48;10.00;99.90
11284;DHT22;5698;47.332;11.180;2023-05-24T03:32:15;10.00;99.90
11284;DHT22;5698;47.332;11.180;2023-05-24T03:34:42;10.00;99.90
11284;DHT22;5698;47.332;11.180;2023-05-24T03:37:10;10.00;99.90
11284;DHT22;5698;47.332;11.180;2023-05-24T03:39:37;10.10;99.90
11284;DHT22;5698;47.332;11.180;2023-05-24T03:42:04;10.10;99.90
11284;DHT22;5698;47.332;11.180;2023-05-24T03:44:31;10.00;99.90
11284;DHT22;5698;47.332;11.180;2023-05-24T03:46:58;10.10;99.90
11284;DHT22;5698;47.332;11.180;2023-05-24T03:49:26;10.10;99.90
11284;DHT22;5698;47.332;11.180;2023-05-24T03:51:52;10.10;99.90
11284;DHT22;5698;47.332;11.180;2023-05-24T03:54:21;10.10;99.90
11284;DHT22;5698;47.332;11.180;2023-05-24T03:56:48;10.20;99.90
11284;DHT22;5698;47.332;11.180;2023-05-24T03:59:17;10.20;99.90
11284;DHT22;5698;47.332;11.180;2023-05-24T04:01:44;10.20;99.90
11284;DHT22;5698;47.332;11.180;2023-05-24T04:04:11;10.30;99.90
11284;DHT22;5698;47.332;11.180;2023-05-24T04:06:38;10.20;99.90
11284;DHT22;5698;47.332;11.180;2023-05-24T04:09:06;10.30;99.90
11284;DHT22;5698;47.332;11.180;2023-05-24T04:11:36;10.30;99.90
11284;DHT22;5698;47.332;11.180;2023-05-24T04:14:03;10.30;99.90
11284;DHT22;5698;47.332;11.180;2023-05-24T04:16:29;10.30;99.90
11284;DHT22;5698;47.332;11.180;2023-05-24T04:18:59;10.30;99.90
11284;DHT22;5698;47.332;11.180;2023-05-24T04:21:28;10.30;99.90
11284;DHT22;5698;47.332;11.180;2023-05-24T04:23:56;10.30;99.90
11284;DHT22;5698;47.332;11.180;2023-05-24T04:26:24;10.40;99.90
11284;DHT22;5698;47.332;11.180;2023-05-24T04:28:53;10.30;99.90
11284;DHT22;5698;47.332;11.180;2023-05-24T04:31:20;10.30;99.90
11284;DHT22;5698;47.332;11.180;2023-05-24T04:33:47;10.30;99.90
11284;DHT22;5698;47.332;11.180;2023-05-24T04:36:14;10.30;99.90
11284;DHT22;5698;47.332;11.180;2023-05-24T04:38:42;10.30;99.90
11284;DHT22;5698;47.332;11.180;2023-05-24T04:41:10;10.30;99.90
11284;DHT22;5698;47.332;11.180;2023-05-24T04:43:37;10.30;99.90
11284;DHT22;5698;47.332;11.180;2023-05-24T04:46:06;10.30;99.90
11284;DHT22;5698;47.332;11.180;2023-05-24T04:48:33;10.30;99.90
11284;DHT22;5698;47.332;11.180;2023-05-24T04:51:00;10.30;99.90
11284;DHT22;5698;47.332;11.180;2023-05-24T04:53:27;10.30;99.90
11284;DHT22;5698;47.332;11.180;2023-05-24T04:55:55;10.30;99.90
11284;DHT22;5698;47.332;11.180;2023-05-24T04:58:22;10.30;99.90
11284;DHT22;5698;47.332;11.180;2023-05-24T05:00:49;10.30;99.90
11284;DHT22;5698;47.332;11.180;2023-05-24T05:03:17;10.30;99.90
11284;DHT22;5698;47.332;11.180;2023-05-24T05:05:44;10.30;99.90
11284;DHT22;5698;47.332;11.180;2023-05-24T05:08:11;10.30;99.90
11284;DHT22;5698;47.332;11.180;2023-05-24T05:10:38;10.30;99.90
11284;DHT22;5698;47.332;11.180;2023-05-24T05:13:05;10.30;99.90
11284;DHT22;5698;47.332;11.180;2023-05-24T05:15:32;10.30;99.90
11284;DHT22;5698;47.332;11.180;2023-05-24T05:17:59;10.20;99.90
11284;DHT22;5698;47.332;11.180;2023-05-24T05:20:27;10.20;99.90
11284;DHT22;5698;47.332;11.180;2023-05-24T05:22:54;10.20;99.90
11284;DHT22;5698;47.332;11.180;2023-05-24T05:25:21;10.20;99.90
11284;DHT22;5698;47.332;11.180;2023-05-24T05:27:48;10.20;99.90
11284;DHT22;5698;47.332;11.180;2023-05-24T05:30:15;10.20;99.90
11284;DHT22;5698;47.332;11.180;2023-05-24T05:32:42;10.20;99.90
11284;DHT22;5698;47.332;11.180;2023-05-24T05:35:09;10.20;99.90
11284;DHT22;5698;47.332;11.180;2023-05-24T05:37:38;10.20;99.90
11284;DHT22;5698;47.332;11.180;2023-05-24T05:40:06;10.20;99.90
11284;DHT22;5698;47.332;11.180;2023-05-24T05:42:33;10.20;99.90
11284;DHT22;5698;47.332;11.180;2023-05-24T05:45:00;10.20;99.90
11284;DHT22;5698;47.332;11.180;2023-05-24T05:47:27;10.20;99.90
11284;DHT22;5698;47.332;11.180;2023-05-24T05:49:54;10.10;99.90
11284;DHT22;5698;47.332;11.180;2023-05-24T05:52:21;10.10;99.90
11284;DHT22;5698;47.332;11.180;2023-05-24T05:54:49;10.20;99.90
11284;DHT22;5698;47.332;11.180;2023-05-24T05:57:16;10.20;99.90
11284;DHT22;5698;47.332;11.180;2023-05-24T05:59:48;10.20;99.90
11284;DHT22;5698;47.332;11.180;2023-05-24T06:02:15;10.10;99.90
11284;DHT22;5698;47.332;11.180;2023-05-24T06:04:44;10.10;99.90
11284;DHT22;5698;47.332;11.180;2023-05-24T06:07:11;10.10;99.90
11284;DHT22;5698;47.332;11.180;2023-05-24T06:09:38;10.10;99.90
11284;DHT22;5698;47.332;11.180;2023-05-24T06:12:06;10.10;99.90
11284;DHT22;5698;47.332;11.180;2023-05-24T06:14:33;10.00;99.90
11284;DHT22;5698;47.332;11.180;2023-05-24T06:17:03;10.00;99.90
11284;DHT22;5698;47.332;11.180;2023-05-24T06:19:30;10.00;99.90
11284;DHT22;5698;47.332;11.180;2023-05-24T06:21:57;10.00;99.90
11284;DHT22;5698;47.332;11.180;2023-05-24T06:24:24;10.00;99.90
11284;DHT22;5698;47.332;11.180;2023-05-24T06:26:53;10.00;99.90
11284;DHT22;5698;47.332;11.180;2023-05-24T06:29:21;10.00;99.90
11284;DHT22;5698;47.332;11.180;2023-05-24T06:31:50;10.00;99.90
11284;DHT22;5698;47.332;11.180;2023-05-24T06:34:17;9.90;99.90
11284;DHT22;5698;47.332;11.180;2023-05-24T06:36:45;10.00;99.90
11284;DHT22;5698;47.332;11.180;2023-05-24T06:39:13;10.00;99.90
11284;DHT22;5698;47.332;11.180;2023-05-24T06:41:42;10.00;99.90
11284;DHT22;5698;47.332;11.180;2023-05-24T06:44:10;9.90;99.90
11284;DHT22;5698;47.332;11.180;2023-05-24T06:46:39;10.00;99.90
11284;DHT22;5698;47.332;11.180;2023-05-24T06:49:06;10.00;99.90
11284;DHT22;5698;47.332;11.180;2023-05-24T06:51:33;10.00;99.90
11284;DHT22;5698;47.332;11.180;2023-05-24T06:54:01;10.00;99.90
11284;DHT22;5698;47.332;11.180;2023-05-24T06:56:28;10.00;99.90
11284;DHT22;5698;47.332;11.180;2023-05-24T06:58:55;10.00;99.90
11284;DHT22;5698;47.332;11.180;2023-05-24T07:01:22;10.00;99.90
11284;DHT22;5698;47.332;11.180;2023-05-24T07:03:50;10.00;99.90
11284;DHT22;5698;47.332;11.180;2023-05-24T07:06:17;9.90;99.90
11284;DHT22;5698;47.332;11.180;2023-05-24T07:08:44;9.90;99.90
11284;DHT22;5698;47.332;11.180;2023-05-24T07:11:11;10.00;99.90
11284;DHT22;5698;47.332;11.180;2023-05-24T07:13:38;10.00;99.90
11284;DHT22;5698;47.332;11.180;2023-05-24T07:16:05;10.00;99.90
11284;DHT22;5698;47.332;11.180;2023-05-24T07:18:32;10.00;99.90
11284;DHT22;5698;47.332;11.180;2023-05-24T07:21:01;10.00;99.90
11284;DHT22;5698;47.332;11.180;2023-05-24T07:23:28;9.90;99.90
11284;DHT22;5698;47.332;11.180;2023-05-24T07:25:55;10.00;99.90
11284;DHT22;5698;47.332;11.180;2023-05-24T07:28:22;10.00;99.90
11284;DHT22;5698;47.332;11.180;2023-05-24T07:30:49;10.00;99.90
11284;DHT22;5698;47.332;11.180;2023-05-24T07:33:16;10.00;99.90
11284;DHT22;5698;47.332;11.180;2023-05-24T07:35:43;10.00;99.90
11284;DHT22;5698;47.332;11.180;2023-05-24T07:38:17;10.00;99.90
11284;DHT22;5698;47.332;11.180;2023-05-24T07:40:44;10.00;99.90
11284;DHT22;5698;47.332;11.180;2023-05-24T07:43:11;10.00;99.90
11284;DHT22;5698;47.332;11.180;2023-05-24T07:45:38;10.00;99.90
11284;DHT22;5698;47.332;11.180;2023-05-24T07:48:05;10.10;99.90
11284;DHT22;5698;47.332;11.180;2023-05-24T07:50:32;10.10;99.90
11284;DHT22;5698;47.332;11.180;2023-05-24T07:52:59;10.10;99.90
11284;DHT22;5698;47.332;11.180;2023-05-24T07:55:27;10.20;99.90
11284;DHT22;5698;47.332;11.180;2023-05-24T07:57:54;10.20;99.90
11284;DHT22;5698;47.332;11.180;2023-05-24T08:00:22;10.20;99.90
11284;DHT22;5698;47.332;11.180;2023-05-24T08:02:49;10.20;99.90
11284;DHT22;5698;47.332;11.180;2023-05-24T08:05:16;10.30;99.90
11284;DHT22;5698;47.332;11.180;2023-05-24T08:07:43;10.30;99.90
11284;DHT22;5698;47.332;11.180;2023-05-24T08:10:11;10.30;99.90
11284;DHT22;5698;47.332;11.180;2023-05-24T08:12:39;10.40;99.90
11284;DHT22;5698;47.332;11.180;2023-05-24T08:15:07;10.40;99.90
11284;DHT22;5698;47.332;11.180;2023-05-24T08:17:34;10.40;99.90
11284;DHT22;5698;47.332;11.180;2023-05-24T08:20:01;10.40;99.90
11284;DHT22;5698;47.332;11.180;2023-05-24T08:22:31;10.50;99.90
11284;DHT22;5698;47.332;11.180;2023-05-24T08:24:58;10.50;99.90
11284;DHT22;5698;47.332;11.180;2023-05-24T08:27:25;10.40;99.90
11284;DHT22;5698;47.332;11.180;2023-05-24T08:29:54;10.40;99.90
11284;DHT22;5698;47.332;11.180;2023-05-24T08:32:21;10.50;99.90
11284;DHT22;5698;47.332;11.180;2023-05-24T08:34:48;10.40;99.90
11284;DHT22;5698;47.332;11.180;2023-05-24T08:37:15;10.40;99.90
11284;DHT22;5698;47.332;11.180;2023-05-24T08:39:45;10.40;99.90
11284;DHT22;5698;47.332;11.180;2023-05-24T08:42:12;10.40;99.90
11284;DHT22;5698;47.332;11.180;2023-05-24T08:44:43;10.40;99.90
11284;DHT22;5698;47.332;11.180;2023-05-24T08:47:13;10.40;99.90
11284;DHT22;5698;47.332;11.180;2023-05-24T08:49:40;10.40;99.90
11284;DHT22;5698;47.332;11.180;2023-05-24T08:52:08;10.30;99.90
11284;DHT22;5698;47.332;11.180;2023-05-24T08:54:37;10.30;99.90
11284;DHT22;5698;47.332;11.180;2023-05-24T08:57:05;10.40;99.90
11284;DHT22;5698;47.332;11.180;2023-05-24T08:59:32;10.40;99.90
11284;DHT22;5698;47.332;11.180;2023-05-24T09:02:00;10.40;99.90
11284;DHT22;5698;47.332;11.180;2023-05-24T09:04:30;10.50;99.90
11284;DHT22;5698;47.332;11.180;2023-05-24T09:06:57;10.50;99.90
11284;DHT22;5698;47.332;11.180;2023-05-24T09:09:26;10.50;99.90
11284;DHT22;5698;47.332;11.180;2023-05-24T09:11:56;10.50;99.90
11284;DHT22;5698;47.332;11.180;2023-05-24T09:14:26;10.40;99.90
11284;DHT22;5698;47.332;11.180;2023-05-24T09:16:53;10.40;99.90
11284;DHT22;5698;47.332;11.180;2023-05-24T09:19:20;10.40;99.90
11284;DHT22;5698;47.332;11.180;2023-05-24T09:21:49;10.40;99.90
11284;DHT22;5698;47.332;11.180;2023-05-24T09:24:17;10.40;99.90
11284;DHT22;5698;47.332;11.180;2023-05-24T09:26:48;10.50;99.90
11284;DHT22;5698;47.332;11.180;2023-05-24T09:29:15;10.40;99.90
11284;DHT22;5698;47.332;11.180;2023-05-24T09:31:42;10.40;99.90
11284;DHT22;5698;47.332;11.180;2023-05-24T09:34:14;10.40;99.90
11284;DHT22;5698;47.332;11.180;2023-05-24T09:36:41;10.40;99.90
11284;DHT22;5698;47.332;11.180;2023-05-24T09:39:10;10.30;99.90
11284;DHT22;5698;47.332;11.180;2023-05-24T09:41:37;10.30;99.90
11284;DHT22;5698;47.332;11.180;2023-05-24T09:44:04;10.30;99.90
11284;DHT22;5698;47.332;11.180;2023-05-24T09:46:35;10.30;99.90
11284;DHT22;5698;47.332;11.180;2023-05-24T09:49:02;10.30;99.90
11284;DHT22;5698;47.332;11.180;2023-05-24T09:51:32;10.30;99.90
11284;DHT22;5698;47.332;11.180;2023-05-24T09:54:02;10.20;99.90
11284;DHT22;5698;47.332;11.180;2023-05-24T09:56:32;10.20;99.90
11284;DHT22;5698;47.332;11.180;2023-05-24T09:59:05;10.20;99.90
11284;DHT22;5698;47.332;11.180;2023-05-24T10:01:33;10.20;99.90
11284;DHT22;5698;47.332;11.180;2023-05-24T10:04:00;10.20;99.90
11284;DHT22;5698;47.332;11.180;2023-05-24T10:06:32;10.20;99.90
11284;DHT22;5698;47.332;11.180;2023-05-24T10:09:02;10.20;99.90
11284;DHT22;5698;47.332;11.180;2023-05-24T10:11:33;10.20;99.90
11284;DHT22;5698;47.332;11.180;2023-05-24T10:14:02;10.20;99.90
11284;DHT22;5698;47.332;11.180;2023-05-24T10:16:29;10.20;99.90
11284;DHT22;5698;47.332;11.180;2023-05-24T10:18:56;10.20;99.90
11284;DHT22;5698;47.332;11.180;2023-05-24T10:21:24;10.20;99.90
11284;DHT22;5698;47.332;11.180;2023-05-24T10:23:56;10.20;99.90
11284;DHT22;5698;47.332;11.180;2023-05-24T10:26:27;10.20;99.90
11284;DHT22;5698;47.332;11.180;2023-05-24T10:28:59;10.30;99.90
11284;DHT22;5698;47.332;11.180;2023-05-24T10:31:30;10.30;99.90
11284;DHT22;5698;47.332;11.180;2023-05-24T10:33:59;10.20;99.90
11284;DHT22;5698;47.332;11.180;2023-05-24T10:36:28;10.20;99.90
11284;DHT22;5698;47.332;11.180;2023-05-24T10:38:55;10.20;99.90
11284;DHT22;5698;47.332;11.180;2023-05-24T10:41:24;10.10;99.90
11284;DHT22;5698;47.332;11.180;2023-05-24T10:43:52;10.10;99.90
11284;DHT22;5698;47.332;11.180;2023-05-24T10:46:20;10.10;99.90
11284;DHT22;5698;47.332;11.180;2023-05-24T10:48:58;10.20;99.90
11284;DHT22;5698;47.332;11.180;2023-05-24T10:51:33;10.20;99.90
11284;DHT22;5698;47.332;11.180;2023-05-24T10:54:15;10.10;99.90
11284;DHT22;5698;47.332;11.180;2023-05-24T10:56:46;10.10;99.90
11284;DHT22;5698;47.332;11.180;2023-05-24T10:59:30;10.10;99.90
11284;DHT22;5698;47.332;11.180;2023-05-24T11:02:00;10.00;99.90
11284;DHT22;5698;47.332;11.180;2023-05-24T11:04:32;10.10;99.90
11284;DHT22;5698;47.332;11.180;2023-05-24T11:07:03;10.10;99.90
11284;DHT22;5698;47.332;11.180;2023-05-24T11:09:31;10.10;99.90
11284;DHT22;5698;47.332;11.180;2023-05-24T11:12:02;10.00;99.90
11284;DHT22;5698;47.332;11.180;2023-05-24T11:14:33;10.00;99.90
11284;DHT22;5698;47.332;11.180;2023-05-24T11:17:03;10.00;99.90
11284;DHT22;5698;47.332;11.180;2023-05-24T11:19:32;10.00;99.90
11284;DHT22;5698;47.332;11.180;2023-05-24T11:22:01;10.00;99.90
11284;DHT22;5698;47.332;11.180;2023-05-24T11:24:29;10.00;99.90
11284;DHT22;5698;47.332;11.180;2023-05-24T11:26:56;10.00;99.90
11284;DHT22;5698;47.332;11.180;2023-05-24T11:29:23;10.00;99.90
11284;DHT22;5698;47.332;11.180;2023-05-24T11:31:52;10.10;99.90
11284;DHT22;5698;47.332;11.180;2023-05-24T11:34:21;10.10;99.90
11284;DHT22;5698;47.332;11.180;2023-05-24T11:36:49;10.10;99.90
11284;DHT22;5698;47.332;11.180;2023-05-24T11:39:17;10.10;99.90
11284;DHT22;5698;47.332;11.180;2023-05-24T11:41:44;10.20;99.90
11284;DHT22;5698;47.332;11.180;2023-05-24T11:44:16;10.20;99.90
11284;DHT22;5698;47.332;11.180;2023-05-24T11:46:44;10.20;99.90
11284;DHT22;5698;47.332;11.180;2023-05-24T11:49:12;10.30;99.90
11284;DHT22;5698;47.332;11.180;2023-05-24T11:51:42;10.30;99.90
11284;DHT22;5698;47.332;11.180;2023-05-24T11:54:08;10.40;99.90
11284;DHT22;5698;47.332;11.180;2023-05-24T11:56:36;10.50;99.90
11284;DHT22;5698;47.332;11.180;2023-05-24T11:59:08;10.50;99.90
11284;DHT22;5698;47.332;11.180;2023-05-24T12:01:38;10.60;99.90
11284;DHT22;5698;47.332;11.180;2023-05-24T12:04:05;10.70;99.90
11284;DHT22;5698;47.332;11.180;2023-05-24T12:06:34;10.80;99.90
11284;DHT22;5698;47.332;11.180;2023-05-24T12:09:03;10.80;99.90
11284;DHT22;5698;47.332;11.180;2023-05-24T12:11:33;10.90;99.90
11284;DHT22;5698;47.332;11.180;2023-05-24T12:14:00;10.80;99.90
11284;DHT22;5698;47.332;11.180;2023-05-24T12:16:27;10.80;99.90
11284;DHT22;5698;47.332;11.180;2023-05-24T12:18:57;10.80;99.90
11284;DHT22;5698;47.332;11.180;2023-05-24T12:21:24;10.80;99.90
11284;DHT22;5698;47.332;11.180;2023-05-24T12:23:51;10.80;99.90
11284;DHT22;5698;47.332;11.180;2023-05-24T12:26:20;10.70;99.90
11284;DHT22;5698;47.332;11.180;2023-05-24T12:28:53;10.70;99.90
11284;DHT22;5698;47.332;11.180;2023-05-24T12:31:21;10.70;99.90
11284;DHT22;5698;47.332;11.180;2023-05-24T12:33:49;10.60;99.90
11284;DHT22;5698;47.332;11.180;2023-05-24T12:36:16;10.70;99.90
11284;DHT22;5698;47.332;11.180;2023-05-24T12:38:43;10.60;99.90
11284;DHT22;5698;47.332;11.180;2023-05-24T12:41:11;10.60;99.90
11284;DHT22;5698;47.332;11.180;2023-05-24T12:43:41;10.60;99.90
11284;DHT22;5698;47.332;11.180;2023-05-24T12:46:09;10.60;99.90
11284;DHT22;5698;47.332;11.180;2023-05-24T12:48:36;10.50;99.90
11284;DHT22;5698;47.332;11.180;2023-05-24T12:51:03;10.50;99.90
11284;DHT22;5698;47.332;11.180;2023-05-24T12:53:30;10.50;99.90
11284;DHT22;5698;47.332;11.180;2023-05-24T12:55:57;10.50;99.90
11284;DHT22;5698;47.332;11.180;2023-05-24T12:58:25;10.50;99.90
11284;DHT22;5698;47.332;11.180;2023-05-24T13:00:54;10.50;99.90
11284;DHT22;5698;47.332;11.180;2023-05-24T13:03:21;10.60;99.90
11284;DHT22;5698;47.332;11.180;2023-05-24T13:05:49;10.50;99.90
11284;DHT22;5698;47.332;11.180;2023-05-24T13:08:17;10.50;99.90
11284;DHT22;5698;47.332;11.180;2023-05-24T13:10:44;10.40;99.90
11284;DHT22;5698;47.332;11.180;2023-05-24T13:13:12;10.50;99.90
11284;DHT22;5698;47.332;11.180;2023-05-24T13:15:40;10.50;99.90
11284;DHT22;5698;47.332;11.180;2023-05-24T13:18:10;10.50;99.90
11284;DHT22;5698;47.332;11.180;2023-05-24T13:20:37;10.60;99.90
11284;DHT22;5698;47.332;11.180;2023-05-24T13:23:05;10.50;99.90
11284;DHT22;5698;47.332;11.180;2023-05-24T13:25:33;10.50;99.90
11284;DHT22;5698;47.332;11.180;2023-05-24T13:28:01;10.50;99.90
11284;DHT22;5698;47.332;11.180;2023-05-24T13:30:28;10.60;99.90
11284;DHT22;5698;47.332;11.180;2023-05-24T13:32:55;10.70;99.90
11284;DHT22;5698;47.332;11.180;2023-05-24T13:35:24;10.70;99.90
11284;DHT22;5698;47.332;11.180;2023-05-24T13:37:51;10.70;99.90
11284;DHT22;5698;47.332;11.180;2023-05-24T13:40:20;10.80;99.90
11284;DHT22;5698;47.332;11.180;2023-05-24T13:42:49;10.80;99.90
11284;DHT22;5698;47.332;11.180;2023-05-24T13:45:16;10.80;99.90
11284;DHT22;5698;47.332;11.180;2023-05-24T13:47:43;10.90;99.90
11284;DHT22;5698;47.332;11.180;2023-05-24T13:50:10;10.90;99.90
11284;DHT22;5698;47.332;11.180;2023-05-24T13:52:39;10.90;99.90
11284;DHT22;5698;47.332;11.180;2023-05-24T13:55:06;10.90;99.90
11284;DHT22;5698;47.332;11.180;2023-05-24T13:57:34;10.90;99.90
11284;DHT22;5698;47.332;11.180;2023-05-24T14:00:01;10.80;99.90
11284;DHT22;5698;47.332;11.180;2023-05-24T14:02:28;10.80;99.90
11284;DHT22;5698;47.332;11.180;2023-05-24T14:04:56;10.80;99.90
11284;DHT22;5698;47.332;11.180;2023-05-24T14:07:23;10.70;99.90
11284;DHT22;5698;47.332;11.180;2023-05-24T14:09:52;10.60;99.90
11284;DHT22;5698;47.332;11.180;2023-05-24T14:12:19;10.60;99.90
11284;DHT22;5698;47.332;11.180;2023-05-24T14:14:46;10.50;99.90
11284;DHT22;5698;47.332;11.180;2023-05-24T14:17:13;10.50;99.90
11284;DHT22;5698;47.332;11.180;2023-05-24T14:19:40;10.50;99.90
11284;DHT22;5698;47.332;11.180;2023-05-24T14:22:07;10.50;99.90
11284;DHT22;5698;47.332;11.180;2023-05-24T14:24:34;10.50;99.90
11284;DHT22;5698;47.332;11.180;2023-05-24T14:27:03;10.50;99.90
11284;DHT22;5698;47.332;11.180;2023-05-24T14:29:31;10.40;99.90
11284;DHT22;5698;47.332;11.180;2023-05-24T14:31:58;10.40;99.90
11284;DHT22;5698;47.332;11.180;2023-05-24T14:34:25;10.40;99.90
11284;DHT22;5698;47.332;11.180;2023-05-24T14:36:53;10.30;99.90
11284;DHT22;5698;47.332;11.180;2023-05-24T14:39:20;10.20;99.90
11284;DHT22;5698;47.332;11.180;2023-05-24T14:41:47;10.20;99.90
11284;DHT22;5698;47.332;11.180;2023-05-24T14:44:15;10.10;99.90
11284;DHT22;5698;47.332;11.180;2023-05-24T14:46:44;10.10;99.90
11284;DHT22;5698;47.332;11.180;2023-05-24T14:49:11;10.10;99.90
11284;DHT22;5698;47.332;11.180;2023-05-24T14:51:38;10.00;99.90
11284;DHT22;5698;47.332;11.180;2023-05-24T14:54:05;10.00;99.90
11284;DHT22;5698;47.332;11.180;2023-05-24T14:56:32;10.00;99.90
11284;DHT22;5698;47.332;11.180;2023-05-24T14:59:00;10.00;99.90
11284;DHT22;5698;47.332;11.180;2023-05-24T15:01:29;10.00;99.90
11284;DHT22;5698;47.332;11.180;2023-05-24T15:03:56;10.10;99.90
11284;DHT22;5698;47.332;11.180;2023-05-24T15:06:24;10.10;99.90
11284;DHT22;5698;47.332;11.180;2023-05-24T15:08:51;10.10;99.90
11284;DHT22;5698;47.332;11.180;2023-05-24T15:11:18;10.10;99.90
11284;DHT22;5698;47.332;11.180;2023-05-24T15:13:45;10.00;99.90
11284;DHT22;5698;47.332;11.180;2023-05-24T15:16:12;10.00;99.90
11284;DHT22;5698;47.332;11.180;2023-05-24T15:18:41;10.00;99.90
11284;DHT22;5698;47.332;11.180;2023-05-24T15:21:08;10.00;99.90
11284;DHT22;5698;47.332;11.180;2023-05-24T15:23:35;10.00;99.90
11284;DHT22;5698;47.332;11.180;2023-05-24T15:26:02;9.80;99.90
11284;DHT22;5698;47.332;11.180;2023-05-24T15:28:29;9.80;99.90
11284;DHT22;5698;47.332;11.180;2023-05-24T15:30:56;9.60;99.90
11284;DHT22;5698;47.332;11.180;2023-05-24T15:33:24;9.60;99.90
11284;DHT22;5698;47.332;11.180;2023-05-24T15:35:53;9.60;99.90
11284;DHT22;5698;47.332;11.180;2023-05-24T15:38:21;9.50;99.90
11284;DHT22;5698;47.332;11.180;2023-05-24T15:40:48;9.50;99.90